Time;durP1;ratioP1;P1;durP2;ratioP2;P2;SDS_P1;SDS_P2;PMS_P1;PMS_P2;Temp;Humidity;BMP_temperature;BMP_pressure;BME280_temperature;BME280_humidity;BME280_pressure;Samples;Min_cycle;Max_cycle;Signal;HPM_P1;HPM_P2
2022/01/20 00:01:50;;;;;;;24.30;4.17;;;;;;;;;;5049742;28;20018;-81
2022/01/20 00:04:35;;;;;;;23.30;4.03;;;;;;;;;;5051546;28;20029;-82
2022/01/20 00:28:21;;;;;;;20.17;4.03;;;;;;;;;;5042997;28;20319;-83
2022/01/20 00:30:57;;;;;;;19.53;3.03;;;;;;;;;;5050564;28;20041;-83
2022/01/20 00:33:40;;;;;;;12.37;3.03;;;;;;;;;;5049833;28;20059;-83
2022/01/20 00:38:37;;;;;;;25.97;3.10;;;;;;;;;;5039657;28;20080;-83
2022/01/20 00:41:03;;;;;;;22.67;3.27;;;;;;;;;;5043588;28;20273;-84
2022/01/20 00:43:29;;;;;;;17.17;3.30;;;;;;;;;;5043198;28;20312;-85
2022/01/20 00:45:56;;;;;;;34.93;4.60;;;;;;;;;;5048298;28;20280;-83
2022/01/20 00:48:23;;;;;;;24.27;3.20;;;;;;;;;;5053711;28;20283;-83
2022/01/20 00:50:51;;;;;;;26.40;4.03;;;;;;;;;;5048308;28;20279;-83
2022/01/20 00:53:17;;;;;;;18.43;4.23;;;;;;;;;;5051026;28;20288;-78
2022/01/20 00:55:44;;;;;;;32.23;4.10;;;;;;;;;;5049467;28;20288;-82
2022/01/20 00:58:10;;;;;;;34.67;3.57;;;;;;;;;;5051731;28;20380;-84
2022/01/20 01:00:36;;;;;;;28.77;3.37;;;;;;;;;;5040557;28;20281;-81
2022/01/20 01:03:03;;;;;;;15.13;3.17;;;;;;;;;;5042035;28;20291;-84
2022/01/20 01:05:29;;;;;;;32.13;3.37;;;;;;;;;;5049600;28;20739;-83
2022/01/20 01:07:56;;;;;;;9.53;2.93;;;;;;;;;;5049834;28;20319;-84
2022/01/20 01:10:30;;;;;;;22.97;3.33;;;;;;;;;;5057907;28;20284;-83
2022/01/20 01:13:08;;;;;;;17.57;3.10;;;;;;;;;;5049951;28;20303;-84
2022/01/20 01:15:38;;;;;;;30.53;3.93;;;;;;;;;;5048940;28;20291;-84
2022/01/20 01:23:27;;;;;;;38.07;3.70;;;;;;;;;;5047327;28;20276;-83
2022/01/20 01:25:56;;;;;;;35.40;3.60;;;;;;;;;;5050287;28;20284;-84
2022/01/20 01:28:27;;;;;;;13.50;2.50;;;;;;;;;;5041940;28;20285;-80
2022/01/20 01:33:41;;;;;;;16.73;3.40;;;;;;;;;;5040187;28;20333;-84
2022/01/20 01:36:12;;;;;;;17.47;3.67;;;;;;;;;;5050743;28;20276;-82
2022/01/20 01:38:43;;;;;;;20.07;3.90;;;;;;;;;;5051700;28;20323;-82
2022/01/20 01:41:13;;;;;;;25.00;3.40;;;;;;;;;;5053355;28;20360;-82
2022/01/20 01:43:41;;;;;;;30.57;3.53;;;;;;;;;;5048726;28;20313;-84
2022/01/20 01:46:08;;;;;;;13.20;2.63;;;;;;;;;;5041398;28;20277;-80
2022/01/20 01:48:35;;;;;;;27.50;3.60;;;;;;;;;;5048922;28;20312;-82
2022/01/20 01:51:01;;;;;;;27.17;4.80;;;;;;;;;;5050471;28;20273;-81
2022/01/20 01:53:28;;;;;;;17.63;4.10;;;;;;;;;;5052072;28;20356;-82
2022/01/20 01:55:54;;;;;;;18.97;5.80;;;;;;;;;;5050739;28;20275;-83
2022/01/20 01:58:20;;;;;;;15.37;3.87;;;;;;;;;;5042831;28;20273;-84
2022/01/20 02:00:46;;;;;;;22.83;4.80;;;;;;;;;;5047810;28;20341;-82
2022/01/20 02:03:15;;;;;;;28.00;5.07;;;;;;;;;;5051897;28;20379;-83
2022/01/20 02:06:15;;;;;;;22.37;4.17;;;;;;;;;;5040934;28;20334;-83
2022/01/20 02:08:59;;;;;;;32.90;5.50;;;;;;;;;;5038338;28;20038;-83
2022/01/20 02:19:49;;;;;;;15.20;3.87;;;;;;;;;;5043381;28;20276;-81
2022/01/20 02:22:15;;;;;;;31.07;5.00;;;;;;;;;;5039250;28;20319;-83
2022/01/20 02:24:41;;;;;;;20.70;4.37;;;;;;;;;;5076622;28;20344;-83
2022/01/20 02:27:07;;;;;;;27.73;4.33;;;;;;;;;;5048656;28;20025;-79
2022/01/20 02:29:33;;;;;;;31.67;4.87;;;;;;;;;;5048751;28;20033;-79
2022/01/20 02:32:00;;;;;;;17.53;4.10;;;;;;;;;;5049009;28;20318;-81
2022/01/20 02:34:29;;;;;;;21.10;2.87;;;;;;;;;;5049451;28;20053;-84
2022/01/20 02:36:57;;;;;;;16.60;2.90;;;;;;;;;;5042382;28;20272;-82
2022/01/20 02:44:54;;;;;;;23.73;2.83;;;;;;;;;;5044880;28;20321;-81
2022/01/20 02:47:21;;;;;;;8.73;2.10;;;;;;;;;;5047633;28;20038;-81
2022/01/20 02:49:47;;;;;;;14.83;2.30;;;;;;;;;;5048025;28;20030;-81
2022/01/20 02:52:13;;;;;;;14.20;2.63;;;;;;;;;;5049788;28;20451;-83
2022/01/20 02:54:39;;;;;;;18.07;3.43;;;;;;;;;;5049562;28;20025;-84
2022/01/20 02:57:05;;;;;;;14.87;2.50;;;;;;;;;;5059191;28;20025;-84
2022/01/20 02:59:34;;;;;;;17.77;2.60;;;;;;;;;;5042846;28;20025;-81
2022/01/20 03:02:00;;;;;;;16.57;2.03;;;;;;;;;;5049279;28;20071;-84
2022/01/20 03:04:27;;;;;;;8.97;1.97;;;;;;;;;;5049496;28;20030;-84
2022/01/20 03:06:54;;;;;;;14.47;1.90;;;;;;;;;;5047476;28;20064;-82
2022/01/20 03:09:20;;;;;;;15.20;3.20;;;;;;;;;;5047755;28;20425;-83
2022/01/20 03:11:48;;;;;;;18.80;2.00;;;;;;;;;;5048417;28;20040;-83
2022/01/20 03:14:17;;;;;;;11.00;1.50;;;;;;;;;;5045949;28;20030;-80
2022/01/20 03:16:43;;;;;;;21.27;2.03;;;;;;;;;;5040251;28;20276;-85
2022/01/20 03:19:09;;;;;;;20.77;2.20;;;;;;;;;;5040305;28;20391;-83
2022/01/20 03:21:35;;;;;;;19.03;1.77;;;;;;;;;;5049684;28;20294;-81
2022/01/20 03:24:01;;;;;;;12.50;2.07;;;;;;;;;;5044325;28;20367;-83
2022/01/20 03:26:27;;;;;;;9.07;2.43;;;;;;;;;;5056734;28;20275;-84
2022/01/20 03:28:53;;;;;;;13.87;2.07;;;;;;;;;;5056779;28;20649;-82
2022/01/20 03:31:22;;;;;;;11.17;2.00;;;;;;;;;;5050469;28;20037;-85
2022/01/20 03:33:48;;;;;;;11.60;2.47;;;;;;;;;;5047490;28;20298;-79
2022/01/20 03:36:14;;;;;;;15.80;1.97;;;;;;;;;;5052644;28;20331;-84
2022/01/20 03:38:40;;;;;;;15.93;2.63;;;;;;;;;;5042262;28;20268;-83
2022/01/20 03:41:06;;;;;;;16.90;2.60;;;;;;;;;;5043315;28;20025;-83
2022/01/20 03:43:32;;;;;;;10.93;1.93;;;;;;;;;;5076341;28;20311;-83
2022/01/20 03:46:00;;;;;;;21.20;2.97;;;;;;;;;;5062801;28;21928;-83
2022/01/20 03:48:29;;;;;;;11.97;1.83;;;;;;;;;;5060066;28;20285;-83
2022/01/20 03:51:02;;;;;;;10.87;2.30;;;;;;;;;;5051996;28;20434;-81
2022/01/20 03:53:29;;;;;;;10.07;2.57;;;;;;;;;;5048372;28;20025;-81
2022/01/20 03:55:58;;;;;;;8.47;1.80;;;;;;;;;;5051368;28;20288;-80
2022/01/20 03:58:24;;;;;;;14.23;2.40;;;;;;;;;;5053204;28;20326;-85
2022/01/20 04:00:53;;;;;;;7.43;1.40;;;;;;;;;;5049115;28;20268;-83
2022/01/20 04:03:19;;;;;;;10.73;1.93;;;;;;;;;;5076666;28;20276;-82
2022/01/20 04:06:06;;;;;;;11.23;2.57;;;;;;;;;;5052802;28;20029;-81
2022/01/20 04:08:35;;;;;;;25.13;2.17;;;;;;;;;;5047277;28;20120;-81
2022/01/20 04:11:02;;;;;;;20.03;1.60;;;;;;;;;;5053413;28;20280;-84
2022/01/20 04:13:31;;;;;;;7.63;1.00;;;;;;;;;;5051342;28;20295;-83
2022/01/20 04:15:59;;;;;;;7.30;1.57;;;;;;;;;;5050146;28;20356;-82
2022/01/20 04:18:26;;;;;;;5.40;1.93;;;;;;;;;;5045461;28;21162;-84
2022/01/20 04:20:53;;;;;;;3.53;1.50;;;;;;;;;;5061072;28;20754;-83
2022/01/20 04:23:19;;;;;;;9.97;1.47;;;;;;;;;;5044624;28;20276;-82
2022/01/20 04:25:45;;;;;;;17.80;2.23;;;;;;;;;;5052162;28;20302;-82
2022/01/20 04:28:11;;;;;;;25.13;1.90;;;;;;;;;;5050949;28;20276;-83
2022/01/20 04:30:38;;;;;;;9.77;1.47;;;;;;;;;;5051980;28;20272;-84
2022/01/20 04:33:04;;;;;;;9.57;2.00;;;;;;;;;;5050451;28;20232;-83
2022/01/20 04:35:30;;;;;;;14.87;2.23;;;;;;;;;;5049315;28;20272;-81
2022/01/20 04:37:58;;;;;;;15.80;2.57;;;;;;;;;;5042414;28;20273;-84
2022/01/20 04:40:24;;;;;;;12.63;2.03;;;;;;;;;;5053313;28;20358;-83
2022/01/20 04:42:51;;;;;;;14.90;2.07;;;;;;;;;;5041226;28;20284;-83
2022/01/20 04:45:25;;;;;;;11.73;1.77;;;;;;;;;;5049395;28;20351;-85
2022/01/20 04:48:32;;;;;;;10.33;2.53;;;;;;;;;;5048330;28;20029;-80
2022/01/20 04:59:03;;;;;;;15.90;3.27;;;;;;;;;;5043002;28;20876;-83
2022/01/20 05:01:33;;;;;;;10.37;3.23;;;;;;;;;;5072617;28;20033;-81
2022/01/20 05:04:02;;;;;;;13.90;2.87;;;;;;;;;;5051273;28;20265;-82
2022/01/20 05:06:28;;;;;;;17.17;2.00;;;;;;;;;;5040332;28;20083;-83
2022/01/20 05:08:54;;;;;;;17.03;1.73;;;;;;;;;;5041292;28;20075;-84
2022/01/20 05:11:20;;;;;;;8.67;2.20;;;;;;;;;;5045998;28;20034;-83
2022/01/20 05:13:47;;;;;;;13.07;3.13;;;;;;;;;;5049039;28;20029;-80
2022/01/20 05:16:13;;;;;;;8.57;1.70;;;;;;;;;;5056709;28;20037;-82
2022/01/20 05:18:39;;;;;;;12.33;2.53;;;;;;;;;;5051089;28;21298;-83
2022/01/20 05:21:05;;;;;;;10.43;2.80;;;;;;;;;;5049278;28;20055;-83
2022/01/20 05:23:32;;;;;;;8.23;1.87;;;;;;;;;;5049183;28;20029;-80
2022/01/20 05:25:58;;;;;;;5.53;1.17;;;;;;;;;;5048782;28;21087;-82
2022/01/20 05:28:24;;;;;;;9.27;2.17;;;;;;;;;;5049358;28;20041;-83
2022/01/20 05:30:50;;;;;;;10.40;2.53;;;;;;;;;;5049376;28;20304;-84
2022/01/20 05:33:16;;;;;;;5.60;1.50;;;;;;;;;;5048393;28;20481;-82
2022/01/20 05:35:44;;;;;;;13.93;1.40;;;;;;;;;;5050997;28;20061;-83
2022/01/20 05:38:12;;;;;;;6.27;1.73;;;;;;;;;;5051665;28;20033;-84
2022/01/20 05:40:38;;;;;;;7.00;1.70;;;;;;;;;;5056451;28;20044;-82
2022/01/20 05:43:04;;;;;;;2.77;1.27;;;;;;;;;;5054735;28;20037;-83
2022/01/20 05:45:30;;;;;;;9.63;2.30;;;;;;;;;;5049081;28;20367;-81
2022/01/20 05:48:09;;;;;;;4.87;1.00;;;;;;;;;;5041378;28;20311;-83
2022/01/20 05:50:35;;;;;;;9.40;2.07;;;;;;;;;;5058977;28;20484;-83
2022/01/20 05:53:04;;;;;;;9.83;1.40;;;;;;;;;;5048872;28;20021;-82
2022/01/20 05:55:31;;;;;;;9.90;2.17;;;;;;;;;;5041967;28;20878;-81
2022/01/20 05:57:57;;;;;;;6.37;1.53;;;;;;;;;;5050307;28;20581;-82
2022/01/20 06:00:24;;;;;;;9.13;1.40;;;;;;;;;;5048726;28;20040;-81
2022/01/20 06:05:36;;;;;;;3.00;0.83;;;;;;;;;;5046296;28;20280;-84
2022/01/20 06:08:05;;;;;;;12.73;1.40;;;;;;;;;;5042849;28;20300;-83
2022/01/20 06:10:33;;;;;;;3.03;1.20;;;;;;;;;;5037868;28;20029;-80
2022/01/20 06:13:00;;;;;;;19.60;1.10;;;;;;;;;;5048624;28;20343;-83
2022/01/20 06:15:26;;;;;;;12.30;1.43;;;;;;;;;;5046342;28;20094;-82
2022/01/20 06:17:52;;;;;;;6.97;1.47;;;;;;;;;;5046835;28;20021;-81
2022/01/20 06:20:18;;;;;;;3.57;0.80;;;;;;;;;;5038107;28;20314;-82
2022/01/20 06:22:44;;;;;;;7.50;0.80;;;;;;;;;;5043821;28;20029;-83
2022/01/20 06:25:10;;;;;;;8.80;1.00;;;;;;;;;;5038647;28;20292;-81
2022/01/20 06:27:37;;;;;;;2.77;1.00;;;;;;;;;;5046098;28;20290;-82
2022/01/20 06:30:04;;;;;;;8.40;1.03;;;;;;;;;;5044697;28;20285;-83
2022/01/20 06:32:30;;;;;;;3.33;0.70;;;;;;;;;;5042856;28;20268;-82
2022/01/20 06:34:57;;;;;;;6.97;1.30;;;;;;;;;;5045556;28;20292;-82
2022/01/20 06:37:23;;;;;;;8.67;1.27;;;;;;;;;;5045279;28;20276;-81
2022/01/20 06:39:49;;;;;;;12.93;1.57;;;;;;;;;;5044589;28;20269;-84
2022/01/20 06:42:15;;;;;;;11.73;1.70;;;;;;;;;;5046673;28;20308;-81
2022/01/20 06:44:42;;;;;;;3.30;0.93;;;;;;;;;;5053721;28;20407;-81
2022/01/20 06:47:09;;;;;;;3.10;0.70;;;;;;;;;;5039360;28;20315;-82
2022/01/20 06:49:35;;;;;;;9.27;2.17;;;;;;;;;;5045527;28;20284;-81
2022/01/20 06:52:01;;;;;;;4.50;1.13;;;;;;;;;;5050733;28;21734;-78
2022/01/20 06:54:28;;;;;;;12.87;1.93;;;;;;;;;;5038584;28;20317;-81
2022/01/20 06:56:54;;;;;;;7.63;0.83;;;;;;;;;;5048184;28;20308;-83
2022/01/20 06:59:20;;;;;;;8.70;1.00;;;;;;;;;;5052105;28;20279;-84
2022/01/20 07:01:48;;;;;;;6.27;0.80;;;;;;;;;;5048018;28;20283;-83
2022/01/20 07:04:15;;;;;;;6.53;1.03;;;;;;;;;;5047392;28;20387;-83
2022/01/20 07:06:42;;;;;;;13.07;1.30;;;;;;;;;;5046845;28;20284;-82
2022/01/20 07:09:10;;;;;;;10.37;1.57;;;;;;;;;;5049893;28;20341;-84
2022/01/20 07:11:36;;;;;;;5.30;1.80;;;;;;;;;;5051736;28;20359;-82
2022/01/20 07:14:02;;;;;;;13.70;1.77;;;;;;;;;;5050858;28;20459;-83
2022/01/20 07:16:29;;;;;;;12.50;1.90;;;;;;;;;;5045040;28;20268;-84
2022/01/20 07:18:55;;;;;;;7.70;2.10;;;;;;;;;;5052975;28;20273;-83
2022/01/20 07:21:24;;;;;;;13.70;1.77;;;;;;;;;;5052496;28;20279;-83
2022/01/20 07:23:50;;;;;;;10.00;1.57;;;;;;;;;;5054739;28;20271;-82
2022/01/20 07:26:16;;;;;;;7.60;1.70;;;;;;;;;;5050720;28;20272;-81
2022/01/20 07:28:43;;;;;;;6.90;1.23;;;;;;;;;;5043318;28;20310;-82
2022/01/20 07:31:09;;;;;;;5.80;1.70;;;;;;;;;;5051960;28;20313;-83
2022/01/20 07:33:35;;;;;;;7.50;1.30;;;;;;;;;;5050692;28;20327;-81
2022/01/20 07:36:03;;;;;;;6.30;1.37;;;;;;;;;;5050900;28;20283;-82
2022/01/20 07:38:30;;;;;;;6.93;1.03;;;;;;;;;;5045607;28;20307;-83
2022/01/20 07:40:56;;;;;;;17.03;1.33;;;;;;;;;;5048537;28;20288;-83
2022/01/20 07:43:24;;;;;;;6.13;2.53;;;;;;;;;;5045323;28;20284;-83
2022/01/20 07:45:51;;;;;;;15.00;1.80;;;;;;;;;;5051897;28;20277;-85
2022/01/20 07:48:17;;;;;;;8.47;1.57;;;;;;;;;;5053183;28;20628;-81
2022/01/20 07:50:45;;;;;;;4.77;1.70;;;;;;;;;;5062405;28;20728;-81
2022/01/20 07:53:11;;;;;;;7.83;1.83;;;;;;;;;;5050262;28;20284;-81
2022/01/20 07:55:38;;;;;;;5.73;0.70;;;;;;;;;;5053823;28;20286;-83
2022/01/20 07:58:05;;;;;;;2.20;0.70;;;;;;;;;;5053376;28;20711;-83
2022/01/20 08:00:31;;;;;;;7.43;1.07;;;;;;;;;;5074961;28;20343;-83
2022/01/20 08:02:57;;;;;;;9.47;1.20;;;;;;;;;;5052644;28;20272;-81
2022/01/20 08:05:23;;;;;;;9.20;1.20;;;;;;;;;;5077410;28;20782;-84
2022/01/20 08:07:49;;;;;;;6.47;0.97;;;;;;;;;;5076102;28;20268;-83
2022/01/20 08:10:15;;;;;;;9.27;1.03;;;;;;;;;;5050494;28;20276;-81
2022/01/20 08:12:43;;;;;;;8.70;0.90;;;;;;;;;;5051992;28;20279;-83
2022/01/20 08:15:09;;;;;;;9.03;0.90;;;;;;;;;;5053304;28;20302;-83
2022/01/20 08:17:36;;;;;;;5.57;1.33;;;;;;;;;;5052266;28;20272;-81
2022/01/20 08:20:03;;;;;;;7.13;1.40;;;;;;;;;;5043847;28;20272;-82
2022/01/20 08:22:33;;;;;;;5.33;1.50;;;;;;;;;;5076794;28;20286;-84
2022/01/20 08:25:00;;;;;;;11.47;1.07;;;;;;;;;;5045462;28;20288;-82
2022/01/20 08:27:26;;;;;;;8.60;1.20;;;;;;;;;;5052370;28;20280;-81
2022/01/20 08:29:52;;;;;;;7.57;0.93;;;;;;;;;;5061655;28;20351;-78
2022/01/20 08:32:19;;;;;;;7.40;1.10;;;;;;;;;;5045018;28;20302;-81
2022/01/20 08:34:45;;;;;;;11.10;1.60;;;;;;;;;;5044116;28;20323;-84
2022/01/20 08:37:11;;;;;;;14.03;1.40;;;;;;;;;;5063217;28;20296;-79
2022/01/20 08:39:44;;;;;;;12.43;1.27;;;;;;;;;;5052492;28;20358;-85
2022/01/20 08:42:11;;;;;;;14.23;1.27;;;;;;;;;;5043623;28;20285;-83
2022/01/20 08:44:37;;;;;;;13.43;1.17;;;;;;;;;;5046885;28;20279;-81
2022/01/20 08:47:06;;;;;;;16.23;1.50;;;;;;;;;;5053079;28;20645;-82
2022/01/20 08:49:32;;;;;;;5.60;0.80;;;;;;;;;;5051704;28;20315;-79
2022/01/20 08:52:00;;;;;;;5.40;1.67;;;;;;;;;;5046894;28;20275;-82
2022/01/20 08:54:26;;;;;;;12.50;1.60;;;;;;;;;;5046136;28;20296;-83
2022/01/20 08:56:53;;;;;;;11.67;1.30;;;;;;;;;;5052468;28;20277;-85
2022/01/20 08:59:19;;;;;;;8.73;1.57;;;;;;;;;;5044608;28;20268;-83
2022/01/20 09:01:46;;;;;;;3.37;1.40;;;;;;;;;;5043443;28;20272;-82
2022/01/20 09:04:12;;;;;;;23.50;1.90;;;;;;;;;;5052052;28;20318;-81
2022/01/20 09:06:38;;;;;;;5.37;1.20;;;;;;;;;;5047873;28;20344;-81
2022/01/20 09:09:04;;;;;;;6.27;1.67;;;;;;;;;;5051689;28;20284;-82
2022/01/20 09:11:36;;;;;;;6.37;1.23;;;;;;;;;;5062143;28;20290;-79
2022/01/20 09:16:47;;;;;;;20.13;1.93;;;;;;;;;;5048915;28;20292;-79
2022/01/20 09:19:14;;;;;;;13.70;1.70;;;;;;;;;;5050853;28;20281;-81
2022/01/20 09:21:40;;;;;;;11.10;1.50;;;;;;;;;;5050164;28;20279;-81
2022/01/20 09:24:07;;;;;;;12.80;1.73;;;;;;;;;;5044183;28;20319;-82
2022/01/20 09:26:34;;;;;;;2.60;1.80;;;;;;;;;;5051773;28;20306;-83
2022/01/20 09:29:00;;;;;;;8.80;1.10;;;;;;;;;;5049980;28;20292;-81
2022/01/20 09:31:27;;;;;;;6.73;1.47;;;;;;;;;;5052614;28;20280;-82
2022/01/20 09:33:54;;;;;;;8.83;1.63;;;;;;;;;;5052315;28;20062;-82
2022/01/20 09:36:22;;;;;;;6.90;2.10;;;;;;;;;;5045317;28;20305;-81
2022/01/20 09:38:49;;;;;;;7.40;1.23;;;;;;;;;;5049104;28;20376;-82
2022/01/20 09:41:15;;;;;;;1.47;0.37;;;;;;;;;;5048125;28;20314;-83
2022/01/20 09:43:41;;;;;;;2.40;0.87;;;;;;;;;;5071367;28;20283;-81
2022/01/20 09:46:07;;;;;;;3.73;1.10;;;;;;;;;;5048740;28;20299;-81
2022/01/20 09:48:34;;;;;;;5.70;0.47;;;;;;;;;;5049295;28;20268;-81
2022/01/20 09:51:00;;;;;;;4.50;0.40;;;;;;;;;;5049139;28;20314;-82
2022/01/20 09:53:27;;;;;;;4.00;1.27;;;;;;;;;;5042178;28;20652;-80
2022/01/20 09:55:54;;;;;;;8.20;0.63;;;;;;;;;;5040765;28;20276;-84
2022/01/20 09:58:20;;;;;;;2.90;0.50;;;;;;;;;;5049303;28;20331;-82
2022/01/20 10:00:46;;;;;;;3.33;0.80;;;;;;;;;;5047945;28;20273;-84
2022/01/20 10:03:16;;;;;;;12.77;1.00;;;;;;;;;;5048432;28;20287;-83
2022/01/20 10:05:51;;;;;;;2.57;1.33;;;;;;;;;;5050296;28;20719;-82
2022/01/20 10:08:18;;;;;;;2.23;0.60;;;;;;;;;;5051311;28;20301;-81
2022/01/20 10:10:44;;;;;;;8.33;1.07;;;;;;;;;;5051809;28;20287;-83
2022/01/20 10:13:11;;;;;;;9.00;1.83;;;;;;;;;;5050861;28;20287;-84
2022/01/20 10:15:38;;;;;;;3.10;0.47;;;;;;;;;;5041572;28;20304;-83
2022/01/20 10:18:09;;;;;;;7.27;1.87;;;;;;;;;;5051802;28;20268;-83
2022/01/20 10:20:36;;;;;;;4.70;1.17;;;;;;;;;;5042007;28;20057;-83
2022/01/20 10:23:02;;;;;;;9.47;1.93;;;;;;;;;;5047903;28;20061;-82
2022/01/20 10:25:33;;;;;;;3.13;0.70;;;;;;;;;;5059882;28;20026;-83
2022/01/20 10:27:59;;;;;;;5.93;0.60;;;;;;;;;;5058412;28;20056;-82
2022/01/20 10:30:27;;;;;;;2.43;1.40;;;;;;;;;;5046991;28;20505;-83
2022/01/20 10:32:56;;;;;;;6.63;0.50;;;;;;;;;;5047010;28;20021;-81
2022/01/20 10:35:32;;;;;;;1.37;0.40;;;;;;;;;;5041354;28;20025;-84
2022/01/20 10:38:11;;;;;;;2.37;0.60;;;;;;;;;;5036696;28;20018;-84
2022/01/20 10:40:52;;;;;;;4.10;0.60;;;;;;;;;;5071071;28;20029;-84
2022/01/20 10:43:21;;;;;;;1.67;0.50;;;;;;;;;;5045544;28;20315;-81
2022/01/20 10:45:48;;;;;;;4.47;0.60;;;;;;;;;;5047929;28;20279;-82
2022/01/20 10:48:18;;;;;;;5.57;0.80;;;;;;;;;;5058525;28;20344;-82
2022/01/20 10:50:44;;;;;;;8.17;1.10;;;;;;;;;;5046356;28;20310;-85
2022/01/20 10:53:17;;;;;;;13.83;3.40;;;;;;;;;;5047871;28;20284;-82
2022/01/20 10:55:43;;;;;;;4.73;0.50;;;;;;;;;;5045721;28;20276;-81
2022/01/20 10:58:11;;;;;;;5.23;0.53;;;;;;;;;;5049059;28;20288;-80
2022/01/20 11:00:41;;;;;;;1.77;0.27;;;;;;;;;;5046117;28;20307;-81
2022/01/20 11:03:08;;;;;;;1.13;0.67;;;;;;;;;;5044872;28;20337;-82
2022/01/20 11:05:34;;;;;;;9.43;0.93;;;;;;;;;;5047769;28;20271;-82
2022/01/20 11:08:00;;;;;;;9.17;0.83;;;;;;;;;;5035409;28;21529;-81
2022/01/20 11:10:26;;;;;;;3.07;0.90;;;;;;;;;;5036751;28;20282;-83
2022/01/20 11:12:52;;;;;;;11.70;1.07;;;;;;;;;;5046267;28;20030;-83
2022/01/20 11:15:20;;;;;;;3.87;0.70;;;;;;;;;;5042985;28;21721;-83
2022/01/20 11:17:51;;;;;;;7.73;0.80;;;;;;;;;;5043811;28;20285;-81
2022/01/20 11:20:21;;;;;;;5.20;1.27;;;;;;;;;;5045636;28;20335;-80
2022/01/20 11:22:52;;;;;;;4.27;0.77;;;;;;;;;;5047225;28;20283;-80
2022/01/20 11:25:20;;;;;;;9.13;1.03;;;;;;;;;;5055695;28;20272;-81
2022/01/20 11:27:46;;;;;;;5.47;0.90;;;;;;;;;;5059597;28;21568;-82
2022/01/20 11:30:29;;;;;;;9.60;0.77;;;;;;;;;;5054228;28;20344;-81
2022/01/20 11:32:55;;;;;;;;;;;;;;;;;;5048506;28;20323;-82
2022/01/20 11:35:21;;;;;;;3.30;0.90;;;;;;;;;;5074805;28;19908;-80
2022/01/20 11:37:59;;;;;;;3.63;0.90;;;;;;;;;;5046012;28;20282;-81
2022/01/20 11:40:26;;;;;;;10.90;1.23;;;;;;;;;;5047392;28;20269;-83
2022/01/20 11:42:58;;;;;;;6.20;0.80;;;;;;;;;;5046713;28;20295;-82
2022/01/20 11:45:24;;;;;;;3.08;1.02;;;;;;;;;;5037071;28;20287;-79
2022/01/20 11:47:50;;;;;;;7.53;0.83;;;;;;;;;;5040658;28;20037;-81
2022/01/20 11:50:17;;;;;;;6.47;1.43;;;;;;;;;;5054934;28;20277;-83
2022/01/20 11:52:43;;;;;;;7.37;1.40;;;;;;;;;;5036028;28;20279;-83
2022/01/20 11:55:14;;;;;;;5.37;1.77;;;;;;;;;;5048420;28;20771;-81
2022/01/20 11:57:40;;;;;;;4.50;0.90;;;;;;;;;;5051063;28;20300;-81
2022/01/20 12:00:28;;;;;;;10.37;1.37;;;;;;;;;;5041638;28;20352;-82
2022/01/20 12:02:54;;;;;;;5.60;1.03;;;;;;;;;;5049180;28;20348;-81
2022/01/20 12:05:27;;;;;;;3.63;0.80;;;;;;;;;;5049987;28;20289;-82
2022/01/20 12:08:06;;;;;;;6.23;1.27;;;;;;;;;;5042761;28;20273;-81
2022/01/20 12:10:33;;;;;;;4.70;1.00;;;;;;;;;;5047125;28;20280;-81
2022/01/20 12:13:08;;;;;;;10.60;0.73;;;;;;;;;;5047871;28;20272;-83
2022/01/20 12:15:34;;;;;;;8.53;0.90;;;;;;;;;;5050947;28;20584;-83
2022/01/20 12:18:00;;;;;;;5.73;1.10;;;;;;;;;;5050072;28;20278;-83
2022/01/20 12:20:27;;;;;;;7.03;0.77;;;;;;;;;;5043469;28;20276;-83
2022/01/20 12:22:54;;;;;;;5.73;0.50;;;;;;;;;;5047509;28;20284;-80
2022/01/20 12:25:22;;;;;;;16.03;1.73;;;;;;;;;;5046731;28;20025;-79
2022/01/20 12:27:48;;;;;;;7.37;0.77;;;;;;;;;;5047511;28;20275;-82
2022/01/20 12:30:24;;;;;;;8.90;0.60;;;;;;;;;;5049192;28;20038;-83
2022/01/20 12:33:00;;;;;;;9.87;2.60;;;;;;;;;;5070788;28;20059;-82
2022/01/20 12:35:34;;;;;;;5.43;1.33;;;;;;;;;;5043749;28;20034;-83
2022/01/20 12:38:00;;;;;;;20.40;1.43;;;;;;;;;;5049256;28;20167;-83
2022/01/20 12:40:26;;;;;;;6.30;0.63;;;;;;;;;;5044791;28;20033;-82
2022/01/20 12:42:52;;;;;;;2.37;0.83;;;;;;;;;;5045886;28;20030;-83
2022/01/20 12:48:14;;;;;;;4.88;0.88;;;;;;;;;;5040539;28;20056;-82
2022/01/20 12:50:49;;;;;;;14.53;1.20;;;;;;;;;;5048078;28;20044;-83
2022/01/20 12:53:17;;;;;;;6.03;0.80;;;;;;;;;;5071126;28;20136;-79
2022/01/20 12:55:50;;;;;;;9.40;0.90;;;;;;;;;;5049510;28;20022;-82
2022/01/20 12:58:16;;;;;;;14.00;1.50;;;;;;;;;;5048563;28;20028;-81
2022/01/20 13:00:43;;;;;;;9.43;0.97;;;;;;;;;;5059882;28;20046;-80
2022/01/20 13:03:09;;;;;;;7.43;1.40;;;;;;;;;;5046432;28;20029;-80
2022/01/20 13:05:40;;;;;;;5.97;1.00;;;;;;;;;;5047528;28;20041;-81
2022/01/20 13:08:07;;;;;;;1.50;0.50;;;;;;;;;;5061595;28;20129;-79
2022/01/20 13:10:34;;;;;;;6.00;1.20;;;;;;;;;;5052327;28;20029;-80
2022/01/20 13:13:05;;;;;;;12.87;1.27;;;;;;;;;;5045629;28;20101;-81
2022/01/20 13:15:32;;;;;;;8.87;1.57;;;;;;;;;;5050176;28;20021;-79
2022/01/20 13:18:05;;;;;;;16.00;1.07;;;;;;;;;;5047104;28;20065;-83
2022/01/20 13:20:31;;;;;;;9.70;1.13;;;;;;;;;;5049123;28;20028;-80
2022/01/20 13:22:59;;;;;;;10.47;1.43;;;;;;;;;;5060999;28;20030;-80
2022/01/20 13:25:26;;;;;;;3.73;1.17;;;;;;;;;;5047905;28;20037;-82
2022/01/20 13:27:54;;;;;;;7.10;1.10;;;;;;;;;;5049247;28;20044;-79
2022/01/20 13:30:28;;;;;;;4.17;0.93;;;;;;;;;;5050981;28;20092;-81
2022/01/20 13:32:54;;;;;;;5.07;1.27;;;;;;;;;;5045725;28;20030;-82
2022/01/20 13:35:20;;;;;;;12.63;1.53;;;;;;;;;;5051111;28;20033;-81
2022/01/20 13:37:56;;;;;;;6.13;2.20;;;;;;;;;;5051780;28;20024;-82
2022/01/20 13:40:23;;;;;;;4.47;1.10;;;;;;;;;;5051161;28;20026;-80
2022/01/20 13:45:46;;;;;;;14.27;0.90;;;;;;;;;;5043989;28;20092;-82
2022/01/20 13:48:13;;;;;;;7.27;1.77;;;;;;;;;;5048394;28;20033;-81
2022/01/20 13:50:40;;;;;;;5.07;0.90;;;;;;;;;;5040288;28;20030;-82
2022/01/20 13:53:18;;;;;;;3.30;0.90;;;;;;;;;;5048478;28;20106;-82
2022/01/20 13:55:45;;;;;;;11.00;2.07;;;;;;;;;;5037978;28;20033;-75
2022/01/20 13:58:29;;;;;;;4.43;0.50;;;;;;;;;;5038601;28;20438;-77
2022/01/20 14:00:56;;;;;;;8.67;1.27;;;;;;;;;;5034166;28;20044;-81
2022/01/20 14:03:23;;;;;;;9.03;2.10;;;;;;;;;;5036826;28;20030;-79
2022/01/20 14:05:50;;;;;;;3.93;0.90;;;;;;;;;;5035347;28;20171;-78
2022/01/20 14:08:18;;;;;;;6.13;2.37;;;;;;;;;;5030743;28;20059;-79
2022/01/20 14:10:44;;;;;;;11.53;1.13;;;;;;;;;;5030476;28;20022;-77
2022/01/20 14:13:10;;;;;;;2.63;0.60;;;;;;;;;;5035754;28;20028;-79
2022/01/20 14:15:36;;;;;;;6.13;0.93;;;;;;;;;;5028961;28;20032;-78
2022/01/20 14:18:02;;;;;;;4.20;1.43;;;;;;;;;;5034878;28;20323;-77
2022/01/20 14:20:30;;;;;;;6.60;1.30;;;;;;;;;;5030186;28;20103;-78
2022/01/20 14:22:56;;;;;;;6.40;0.83;;;;;;;;;;5034469;28;20061;-79
2022/01/20 14:25:23;;;;;;;3.50;0.63;;;;;;;;;;5033321;28;20061;-77
2022/01/20 14:27:50;;;;;;;5.40;1.03;;;;;;;;;;5035083;28;20505;-77
2022/01/20 14:30:16;;;;;;;5.27;1.10;;;;;;;;;;5028613;28;20365;-76
2022/01/20 14:32:43;;;;;;;6.87;0.77;;;;;;;;;;5034201;28;20856;-79
2022/01/20 14:35:12;;;;;;;6.97;0.93;;;;;;;;;;5034223;28;20438;-77
2022/01/20 14:37:38;;;;;;;3.03;0.63;;;;;;;;;;5035147;28;20512;-79
2022/01/20 14:40:07;;;;;;;9.37;0.90;;;;;;;;;;5028942;28;20064;-77
2022/01/20 14:42:33;;;;;;;2.67;0.97;;;;;;;;;;5034498;28;20025;-78
2022/01/20 14:44:59;;;;;;;13.30;0.87;;;;;;;;;;5032905;28;20087;-78
2022/01/20 14:47:28;;;;;;;6.07;0.80;;;;;;;;;;5034905;28;20071;-76
2022/01/20 14:49:54;;;;;;;2.30;0.70;;;;;;;;;;5033136;28;20087;-79
2022/01/20 14:52:20;;;;;;;6.17;0.27;;;;;;;;;;5033244;28;20124;-77
2022/01/20 14:54:46;;;;;;;6.17;1.07;;;;;;;;;;5026428;28;20033;-77
2022/01/20 14:57:12;;;;;;;5.10;0.87;;;;;;;;;;5037460;28;20033;-78
2022/01/20 14:59:39;;;;;;;3.40;0.63;;;;;;;;;;5026136;28;20475;-77
2022/01/20 15:02:05;;;;;;;4.03;0.50;;;;;;;;;;5034691;28;20343;-78
2022/01/20 15:04:31;;;;;;;4.10;0.73;;;;;;;;;;5042438;28;20287;-78
2022/01/20 15:06:57;;;;;;;4.17;1.63;;;;;;;;;;5036000;28;20763;-79
2022/01/20 15:09:23;;;;;;;2.50;0.70;;;;;;;;;;5035217;28;20279;-76
2022/01/20 15:11:49;;;;;;;3.13;0.50;;;;;;;;;;5033611;28;20288;-79
2022/01/20 15:14:16;;;;;;;11.87;1.30;;;;;;;;;;5031267;28;20312;-79
2022/01/20 15:16:42;;;;;;;7.93;0.90;;;;;;;;;;5026738;28;20627;-78
2022/01/20 15:19:09;;;;;;;6.07;0.50;;;;;;;;;;5036579;28;20273;-77
2022/01/20 15:21:38;;;;;;;5.10;1.30;;;;;;;;;;5033016;28;20300;-77
2022/01/20 15:24:05;;;;;;;5.23;0.50;;;;;;;;;;5033343;28;20285;-80
2022/01/20 15:26:31;;;;;;;9.33;1.10;;;;;;;;;;5033565;28;20319;-80
2022/01/20 15:28:58;;;;;;;6.60;0.93;;;;;;;;;;5036916;28;20339;-78
2022/01/20 15:31:29;;;;;;;1.30;0.70;;;;;;;;;;5031454;28;20032;-80
2022/01/20 15:33:55;;;;;;;2.93;0.67;;;;;;;;;;5038756;28;20291;-79
2022/01/20 15:36:22;;;;;;;8.37;0.67;;;;;;;;;;5037786;28;20263;-77
2022/01/20 15:38:48;;;;;;;4.03;1.43;;;;;;;;;;5037042;28;20276;-78
2022/01/20 15:41:17;;;;;;;10.17;0.50;;;;;;;;;;5039280;28;20309;-78
2022/01/20 15:43:43;;;;;;;4.43;0.87;;;;;;;;;;5038760;28;20333;-78
2022/01/20 15:46:09;;;;;;;5.90;0.83;;;;;;;;;;5038879;28;20287;-78
2022/01/20 15:48:37;;;;;;;5.47;1.30;;;;;;;;;;5038935;28;21223;-76